FIN9YA EDDB-EFHK
Flight info
| Callsign | FIN9YA |
|---|---|
| Flight time | N/A |
| Altitude | 35000 |
| Route | GERGA2Q GERGA M725 RENKI L132 DEMUR N746 GORPI DCT ALAMI DCT OKEVU DCT EVADI Y370 DIVAM |
| Aircraft | A320/M-SDE3FGHIRWY/LB1 |
Departure
| Time | 2026-04-30 21:59 |
|---|---|
| Airport | Berlin Brandenburg Airport (EDDB) |
Arrival
| Time | N/A |
|---|---|
| Airport | Helsinki Vantaa Airport (EFHK) |
| Time | Latitude | Longitude | Altitude | Speed | Heading |
|---|---|---|---|---|---|
| 2026-04-30 21:38 | 52.36096 | 13.51167 | 158 ft | 0 kts | 334° |
| 2026-04-30 21:48 | 52.36095 | 13.51168 | 158 ft | 2 kts | 334° |
| 2026-04-30 21:48 | 52.36081 | 13.51179 | 158 ft | 2 kts | 334° |
| 2026-04-30 21:49 | 52.36066 | 13.51191 | 158 ft | 2 kts | 335° |
| 2026-04-30 21:49 | 52.36051 | 13.51202 | 158 ft | 2 kts | 336° |
| 2026-04-30 21:49 | 52.36037 | 13.51216 | 158 ft | 2 kts | 311° |
| 2026-04-30 21:49 | 52.36028 | 13.51238 | 158 ft | 2 kts | 288° |
| 2026-04-30 21:50 | 52.36024 | 13.51263 | 158 ft | 1 kts | 259° |
| 2026-04-30 21:50 | 52.36024 | 13.51268 | 158 ft | 0 kts | 250° |
| 2026-04-30 21:51 | 52.36024 | 13.51265 | 158 ft | 3 kts | 250° |
| 2026-04-30 21:51 | 52.35987 | 13.51098 | 158 ft | 22 kts | 248° |
| 2026-04-30 21:52 | 52.35936 | 13.50902 | 158 ft | 14 kts | 248° |
| 2026-04-30 21:52 | 52.35902 | 13.50756 | 158 ft | 13 kts | 250° |
| 2026-04-30 21:52 | 52.35863 | 13.50639 | 158 ft | 12 kts | 214° |
| 2026-04-30 21:52 | 52.35766 | 13.50579 | 158 ft | 17 kts | 237° |
| 2026-04-30 21:53 | 52.35722 | 13.50404 | 158 ft | 17 kts | 249° |
| 2026-04-30 21:53 | 52.35678 | 13.50218 | 158 ft | 18 kts | 249° |
| 2026-04-30 21:53 | 52.35631 | 13.50017 | 158 ft | 20 kts | 249° |
| 2026-04-30 21:53 | 52.35580 | 13.49803 | 158 ft | 21 kts | 249° |
| 2026-04-30 21:54 | 52.35525 | 13.49573 | 158 ft | 22 kts | 249° |
| 2026-04-30 21:54 | 52.35469 | 13.49333 | 158 ft | 24 kts | 249° |
| 2026-04-30 21:54 | 52.35407 | 13.49077 | 158 ft | 25 kts | 248° |
| 2026-04-30 21:54 | 52.35344 | 13.48808 | 158 ft | 26 kts | 251° |
| 2026-04-30 21:55 | 52.35278 | 13.48528 | 158 ft | 27 kts | 249° |
| 2026-04-30 21:55 | 52.35209 | 13.48237 | 158 ft | 28 kts | 249° |
| 2026-04-30 21:55 | 52.35138 | 13.47937 | 158 ft | 29 kts | 248° |
| 2026-04-30 21:55 | 52.35067 | 13.47648 | 158 ft | 28 kts | 250° |
| 2026-04-30 21:56 | 52.35009 | 13.47401 | 158 ft | 23 kts | 249° |
| 2026-04-30 21:56 | 52.34951 | 13.47156 | 158 ft | 24 kts | 249° |
| 2026-04-30 21:56 | 52.34891 | 13.46897 | 158 ft | 25 kts | 249° |
| 2026-04-30 21:56 | 52.34830 | 13.46718 | 158 ft | 15 kts | 207° |
| 2026-04-30 21:57 | 52.34742 | 13.46752 | 158 ft | 12 kts | 160° |
| 2026-04-30 21:57 | 52.34664 | 13.46799 | 156 ft | 12 kts | 158° |
| 2026-04-30 21:57 | 52.34578 | 13.46884 | 152 ft | 18 kts | 124° |
| 2026-04-30 21:57 | 52.34600 | 13.47081 | 151 ft | 22 kts | 68° |
| 2026-04-30 21:58 | 52.34708 | 13.47534 | 150 ft | 75 kts | 69° |
| 2026-04-30 21:58 | 52.34974 | 13.48652 | 155 ft | 133 kts | 69° |
| 2026-04-30 21:58 | 52.35371 | 13.50324 | 172 ft | 177 kts | 69° |
| 2026-04-30 21:58 | 52.35802 | 13.52228 | 713 ft | 180 kts | 73° |
| 2026-04-30 21:59 | 52.35852 | 13.54255 | 1373 ft | 186 kts | 109° |
| 2026-04-30 21:59 | 52.34985 | 13.55919 | 1735 ft | 207 kts | 143° |
| 2026-04-30 21:59 | 52.33736 | 13.57314 | 2069 ft | 228 kts | 144° |
| 2026-04-30 22:00 | 52.31239 | 13.60816 | 3058 ft | 253 kts | 112° |
| 2026-04-30 22:00 | 52.31491 | 13.66488 | 4552 ft | 261 kts | 70° |
| 2026-04-30 22:00 | 52.32067 | 13.69306 | 5463 ft | 262 kts | 70° |
| 2026-04-30 22:01 | 52.32636 | 13.72136 | 6379 ft | 262 kts | 72° |
| 2026-04-30 22:01 | 52.32905 | 13.75083 | 7259 ft | 265 kts | 88° |
| 2026-04-30 22:01 | 52.32803 | 13.78095 | 8117 ft | 265 kts | 90° |
| 2026-04-30 22:01 | 52.32687 | 13.81109 | 8959 ft | 266 kts | 90° |
| 2026-04-30 22:02 | 52.32575 | 13.84093 | 9802 ft | 267 kts | 89° |
| 2026-04-30 22:02 | 52.32461 | 13.87167 | 10613 ft | 269 kts | 89° |